sensor_id;sensor_type;location;lat;lon;timestamp;P1;durP1;ratioP1;P2;durP2;ratioP2
47413;SDS011;33163;0.000;0.000;2022-08-07T00:02:13;3.25;;;1.90;;
47413;SDS011;33163;0.000;0.000;2022-08-07T00:04:41;4.55;;;2.03;;
47413;SDS011;33163;0.000;0.000;2022-08-07T00:07:08;4.45;;;2.22;;
47413;SDS011;33163;0.000;0.000;2022-08-07T00:09:35;5.68;;;2.08;;
47413;SDS011;33163;0.000;0.000;2022-08-07T00:12:05;5.55;;;2.30;;
47413;SDS011;33163;0.000;0.000;2022-08-07T00:14:32;3.60;;;2.20;;
47413;SDS011;33163;0.000;0.000;2022-08-07T00:16:59;5.57;;;2.20;;
47413;SDS011;33163;0.000;0.000;2022-08-07T00:19:26;4.50;;;2.42;;
47413;SDS011;33163;0.000;0.000;2022-08-07T00:21:55;3.20;;;2.05;;
47413;SDS011;33163;0.000;0.000;2022-08-07T00:24:22;6.65;;;2.28;;
47413;SDS011;33163;0.000;0.000;2022-08-07T00:26:48;5.13;;;2.30;;
47413;SDS011;33163;0.000;0.000;2022-08-07T00:29:17;3.45;;;2.05;;
47413;SDS011;33163;0.000;0.000;2022-08-07T00:31:49;3.08;;;2.15;;
47413;SDS011;33163;0.000;0.000;2022-08-07T00:34:16;3.88;;;1.98;;
47413;SDS011;33163;0.000;0.000;2022-08-07T00:36:43;3.88;;;2.10;;
47413;SDS011;33163;0.000;0.000;2022-08-07T00:39:10;4.43;;;2.28;;
47413;SDS011;33163;0.000;0.000;2022-08-07T00:41:37;4.53;;;1.95;;
47413;SDS011;33163;0.000;0.000;2022-08-07T00:44:05;3.85;;;2.30;;
47413;SDS011;33163;0.000;0.000;2022-08-07T00:46:33;4.45;;;2.53;;
47413;SDS011;33163;0.000;0.000;2022-08-07T00:49:00;4.43;;;2.25;;
47413;SDS011;33163;0.000;0.000;2022-08-07T00:51:27;4.53;;;2.45;;
47413;SDS011;33163;0.000;0.000;2022-08-07T00:53:54;4.10;;;2.33;;
47413;SDS011;33163;0.000;0.000;2022-08-07T00:56:21;4.00;;;2.25;;
47413;SDS011;33163;0.000;0.000;2022-08-07T00:58:48;5.97;;;2.47;;
47413;SDS011;33163;0.000;0.000;2022-08-07T01:01:15;3.38;;;2.40;;
47413;SDS011;33163;0.000;0.000;2022-08-07T01:03:43;3.50;;;2.38;;
47413;SDS011;33163;0.000;0.000;2022-08-07T01:06:11;3.78;;;2.63;;
47413;SDS011;33163;0.000;0.000;2022-08-07T01:08:38;3.40;;;2.10;;
47413;SDS011;33163;0.000;0.000;2022-08-07T01:11:05;3.33;;;2.20;;
47413;SDS011;33163;0.000;0.000;2022-08-07T01:13:33;3.08;;;2.22;;
47413;SDS011;33163;0.000;0.000;2022-08-07T01:16:00;3.70;;;2.33;;
47413;SDS011;33163;0.000;0.000;2022-08-07T01:18:29;6.00;;;2.33;;
47413;SDS011;33163;0.000;0.000;2022-08-07T01:21:05;3.70;;;2.40;;
47413;SDS011;33163;0.000;0.000;2022-08-07T01:23:35;3.40;;;2.33;;
47413;SDS011;33163;0.000;0.000;2022-08-07T01:26:02;2.55;;;1.88;;
47413;SDS011;33163;0.000;0.000;2022-08-07T01:28:30;3.08;;;2.20;;
47413;SDS011;33163;0.000;0.000;2022-08-07T01:30:58;6.10;;;2.42;;
47413;SDS011;33163;0.000;0.000;2022-08-07T01:33:27;2.38;;;1.88;;
47413;SDS011;33163;0.000;0.000;2022-08-07T01:35:54;2.88;;;2.20;;
47413;SDS011;33163;0.000;0.000;2022-08-07T01:38:24;3.25;;;2.17;;
47413;SDS011;33163;0.000;0.000;2022-08-07T01:40:51;3.13;;;2.15;;
47413;SDS011;33163;0.000;0.000;2022-08-07T01:43:22;5.18;;;2.28;;
47413;SDS011;33163;0.000;0.000;2022-08-07T01:45:49;5.45;;;2.30;;
47413;SDS011;33163;0.000;0.000;2022-08-07T01:48:16;2.35;;;1.90;;
47413;SDS011;33163;0.000;0.000;2022-08-07T01:50:44;5.80;;;1.90;;
47413;SDS011;33163;0.000;0.000;2022-08-07T01:53:14;2.45;;;1.77;;
47413;SDS011;33163;0.000;0.000;2022-08-07T01:55:46;3.63;;;2.47;;
47413;SDS011;33163;0.000;0.000;2022-08-07T01:58:17;2.78;;;2.10;;
47413;SDS011;33163;0.000;0.000;2022-08-07T02:00:49;3.17;;;1.92;;
47413;SDS011;33163;0.000;0.000;2022-08-07T02:03:20;2.47;;;1.80;;
47413;SDS011;33163;0.000;0.000;2022-08-07T02:05:49;2.33;;;1.83;;
47413;SDS011;33163;0.000;0.000;2022-08-07T02:08:21;2.47;;;1.92;;
47413;SDS011;33163;0.000;0.000;2022-08-07T02:10:52;3.78;;;1.85;;
47413;SDS011;33163;0.000;0.000;2022-08-07T02:13:24;2.90;;;2.05;;
47413;SDS011;33163;0.000;0.000;2022-08-07T02:15:53;2.50;;;1.60;;
47413;SDS011;33163;0.000;0.000;2022-08-07T02:18:21;2.85;;;1.92;;
47413;SDS011;33163;0.000;0.000;2022-08-07T02:20:52;3.28;;;1.95;;
47413;SDS011;33163;0.000;0.000;2022-08-07T02:23:21;2.53;;;1.80;;
47413;SDS011;33163;0.000;0.000;2022-08-07T02:25:49;2.42;;;1.85;;
47413;SDS011;33163;0.000;0.000;2022-08-07T02:28:20;3.58;;;1.80;;
47413;SDS011;33163;0.000;0.000;2022-08-07T02:30:48;2.33;;;1.75;;
47413;SDS011;33163;0.000;0.000;2022-08-07T02:33:16;3.08;;;1.98;;
47413;SDS011;33163;0.000;0.000;2022-08-07T02:35:44;2.03;;;1.70;;
47413;SDS011;33163;0.000;0.000;2022-08-07T02:38:14;2.05;;;1.70;;
47413;SDS011;33163;0.000;0.000;2022-08-07T02:40:42;3.15;;;2.13;;
47413;SDS011;33163;0.000;0.000;2022-08-07T02:43:11;2.65;;;1.80;;
47413;SDS011;33163;0.000;0.000;2022-08-07T02:45:39;2.13;;;1.77;;
47413;SDS011;33163;0.000;0.000;2022-08-07T02:48:08;2.92;;;1.67;;
47413;SDS011;33163;0.000;0.000;2022-08-07T02:50:36;1.70;;;1.40;;
47413;SDS011;33163;0.000;0.000;2022-08-07T02:53:08;3.40;;;1.92;;
47413;SDS011;33163;0.000;0.000;2022-08-07T02:55:38;3.10;;;1.75;;
47413;SDS011;33163;0.000;0.000;2022-08-07T02:58:12;1.90;;;1.70;;
47413;SDS011;33163;0.000;0.000;2022-08-07T03:00:42;2.95;;;1.95;;
47413;SDS011;33163;0.000;0.000;2022-08-07T03:03:10;2.78;;;1.73;;
47413;SDS011;33163;0.000;0.000;2022-08-07T03:05:37;2.05;;;1.65;;
47413;SDS011;33163;0.000;0.000;2022-08-07T03:08:05;1.63;;;1.52;;
47413;SDS011;33163;0.000;0.000;2022-08-07T03:10:32;2.40;;;1.70;;
47413;SDS011;33163;0.000;0.000;2022-08-07T03:12:59;2.67;;;2.08;;
47413;SDS011;33163;0.000;0.000;2022-08-07T03:15:28;3.15;;;1.83;;
47413;SDS011;33163;0.000;0.000;2022-08-07T03:17:56;4.50;;;2.15;;
47413;SDS011;33163;0.000;0.000;2022-08-07T03:20:23;2.47;;;1.77;;
47413;SDS011;33163;0.000;0.000;2022-08-07T03:22:54;5.38;;;2.22;;
47413;SDS011;33163;0.000;0.000;2022-08-07T03:25:22;2.90;;;1.83;;
47413;SDS011;33163;0.000;0.000;2022-08-07T03:27:49;3.97;;;1.90;;
47413;SDS011;33163;0.000;0.000;2022-08-07T03:30:18;2.42;;;1.67;;
47413;SDS011;33163;0.000;0.000;2022-08-07T03:32:46;2.08;;;1.77;;
47413;SDS011;33163;0.000;0.000;2022-08-07T03:35:15;4.35;;;2.20;;
47413;SDS011;33163;0.000;0.000;2022-08-07T03:37:45;2.72;;;2.00;;
47413;SDS011;33163;0.000;0.000;2022-08-07T03:40:16;2.35;;;1.70;;
47413;SDS011;33163;0.000;0.000;2022-08-07T03:42:44;2.47;;;1.92;;
47413;SDS011;33163;0.000;0.000;2022-08-07T03:45:11;4.43;;;2.17;;
47413;SDS011;33163;0.000;0.000;2022-08-07T03:47:39;3.28;;;1.70;;
47413;SDS011;33163;0.000;0.000;2022-08-07T03:50:08;2.55;;;1.80;;
47413;SDS011;33163;0.000;0.000;2022-08-07T03:52:35;1.67;;;1.55;;
47413;SDS011;33163;0.000;0.000;2022-08-07T03:55:02;4.47;;;1.77;;
47413;SDS011;33163;0.000;0.000;2022-08-07T03:57:31;2.13;;;1.63;;
47413;SDS011;33163;0.000;0.000;2022-08-07T03:59:58;2.15;;;1.80;;
47413;SDS011;33163;0.000;0.000;2022-08-07T04:02:25;3.40;;;2.35;;
47413;SDS011;33163;0.000;0.000;2022-08-07T04:04:53;2.97;;;1.50;;
47413;SDS011;33163;0.000;0.000;2022-08-07T04:07:21;2.42;;;1.80;;
47413;SDS011;33163;0.000;0.000;2022-08-07T04:09:49;2.40;;;1.70;;
47413;SDS011;33163;0.000;0.000;2022-08-07T04:12:17;4.28;;;1.42;;
47413;SDS011;33163;0.000;0.000;2022-08-07T04:14:44;1.65;;;1.45;;
47413;SDS011;33163;0.000;0.000;2022-08-07T04:17:11;1.90;;;1.60;;
47413;SDS011;33163;0.000;0.000;2022-08-07T04:19:39;1.88;;;1.67;;
47413;SDS011;33163;0.000;0.000;2022-08-07T04:22:06;2.20;;;1.67;;
47413;SDS011;33163;0.000;0.000;2022-08-07T04:24:34;1.45;;;1.30;;
47413;SDS011;33163;0.000;0.000;2022-08-07T04:27:02;3.30;;;1.90;;
47413;SDS011;33163;0.000;0.000;2022-08-07T04:29:29;3.08;;;1.98;;
47413;SDS011;33163;0.000;0.000;2022-08-07T04:31:56;3.65;;;1.60;;
47413;SDS011;33163;0.000;0.000;2022-08-07T04:34:23;2.17;;;1.70;;
47413;SDS011;33163;0.000;0.000;2022-08-07T04:36:50;3.20;;;1.70;;
47413;SDS011;33163;0.000;0.000;2022-08-07T04:39:19;2.17;;;1.70;;
47413;SDS011;33163;0.000;0.000;2022-08-07T04:41:47;1.80;;;1.55;;
47413;SDS011;33163;0.000;0.000;2022-08-07T04:44:14;2.92;;;1.88;;
47413;SDS011;33163;0.000;0.000;2022-08-07T04:46:43;3.30;;;1.73;;
47413;SDS011;33163;0.000;0.000;2022-08-07T04:49:15;2.38;;;1.85;;
47413;SDS011;33163;0.000;0.000;2022-08-07T04:51:50;3.20;;;2.00;;
47413;SDS011;33163;0.000;0.000;2022-08-07T04:54:23;2.20;;;1.90;;
47413;SDS011;33163;0.000;0.000;2022-08-07T04:56:58;2.63;;;1.92;;
47413;SDS011;33163;0.000;0.000;2022-08-07T04:59:33;1.80;;;1.40;;
47413;SDS011;33163;0.000;0.000;2022-08-07T05:02:06;3.20;;;1.88;;
47413;SDS011;33163;0.000;0.000;2022-08-07T05:04:39;1.75;;;1.60;;
47413;SDS011;33163;0.000;0.000;2022-08-07T05:07:12;2.80;;;1.80;;
47413;SDS011;33163;0.000;0.000;2022-08-07T05:09:45;1.98;;;1.70;;
47413;SDS011;33163;0.000;0.000;2022-08-07T05:12:21;1.50;;;1.38;;
47413;SDS011;33163;0.000;0.000;2022-08-07T05:14:54;4.70;;;1.90;;
47413;SDS011;33163;0.000;0.000;2022-08-07T05:17:25;1.98;;;1.40;;
47413;SDS011;33163;0.000;0.000;2022-08-07T05:19:53;3.65;;;1.77;;
47413;SDS011;33163;0.000;0.000;2022-08-07T05:22:22;1.58;;;1.33;;
47413;SDS011;33163;0.000;0.000;2022-08-07T05:24:50;2.25;;;1.67;;
47413;SDS011;33163;0.000;0.000;2022-08-07T05:27:20;2.08;;;1.40;;
47413;SDS011;33163;0.000;0.000;2022-08-07T05:29:49;3.42;;;1.70;;
47413;SDS011;33163;0.000;0.000;2022-08-07T05:32:16;3.72;;;1.80;;
47413;SDS011;33163;0.000;0.000;2022-08-07T05:34:45;2.55;;;1.70;;
47413;SDS011;33163;0.000;0.000;2022-08-07T05:37:13;3.08;;;1.80;;
47413;SDS011;33163;0.000;0.000;2022-08-07T05:39:41;3.35;;;1.60;;
47413;SDS011;33163;0.000;0.000;2022-08-07T05:42:09;2.85;;;1.92;;
47413;SDS011;33163;0.000;0.000;2022-08-07T05:44:39;2.58;;;1.92;;
47413;SDS011;33163;0.000;0.000;2022-08-07T05:47:06;2.85;;;1.55;;
47413;SDS011;33163;0.000;0.000;2022-08-07T05:49:34;1.77;;;1.60;;
47413;SDS011;33163;0.000;0.000;2022-08-07T05:52:01;1.63;;;1.52;;
47413;SDS011;33163;0.000;0.000;2022-08-07T05:54:29;3.65;;;1.48;;
47413;SDS011;33163;0.000;0.000;2022-08-07T05:56:56;2.03;;;1.40;;
47413;SDS011;33163;0.000;0.000;2022-08-07T05:59:23;1.95;;;1.52;;
47413;SDS011;33163;0.000;0.000;2022-08-07T06:01:52;2.47;;;1.45;;
47413;SDS011;33163;0.000;0.000;2022-08-07T06:04:22;3.80;;;1.58;;
47413;SDS011;33163;0.000;0.000;2022-08-07T06:06:49;2.88;;;1.63;;
47413;SDS011;33163;0.000;0.000;2022-08-07T06:09:16;2.72;;;1.60;;
47413;SDS011;33163;0.000;0.000;2022-08-07T06:11:43;2.40;;;1.50;;
47413;SDS011;33163;0.000;0.000;2022-08-07T06:14:10;3.30;;;1.70;;
47413;SDS011;33163;0.000;0.000;2022-08-07T06:16:38;1.40;;;1.30;;
47413;SDS011;33163;0.000;0.000;2022-08-07T06:19:07;1.40;;;1.30;;
47413;SDS011;33163;0.000;0.000;2022-08-07T06:21:34;1.35;;;1.20;;
47413;SDS011;33163;0.000;0.000;2022-08-07T06:24:02;2.38;;;2.00;;
47413;SDS011;33163;0.000;0.000;2022-08-07T06:26:29;1.88;;;1.60;;
47413;SDS011;33163;0.000;0.000;2022-08-07T06:28:56;2.50;;;1.52;;
47413;SDS011;33163;0.000;0.000;2022-08-07T06:31:24;2.03;;;1.65;;
47413;SDS011;33163;0.000;0.000;2022-08-07T06:33:51;1.60;;;1.20;;
47413;SDS011;33163;0.000;0.000;2022-08-07T06:36:19;2.10;;;1.60;;
47413;SDS011;33163;0.000;0.000;2022-08-07T06:38:46;2.25;;;1.60;;
47413;SDS011;33163;0.000;0.000;2022-08-07T06:41:14;1.63;;;1.50;;
47413;SDS011;33163;0.000;0.000;2022-08-07T06:43:51;4.22;;;1.45;;
47413;SDS011;33163;0.000;0.000;2022-08-07T06:46:19;1.55;;;1.40;;
47413;SDS011;33163;0.000;0.000;2022-08-07T06:48:47;2.35;;;1.48;;
47413;SDS011;33163;0.000;0.000;2022-08-07T06:51:15;3.63;;;1.55;;
47413;SDS011;33163;0.000;0.000;2022-08-07T06:53:44;2.03;;;1.60;;
47413;SDS011;33163;0.000;0.000;2022-08-07T06:56:13;1.67;;;1.58;;
47413;SDS011;33163;0.000;0.000;2022-08-07T06:59:02;1.30;;;1.20;;
47413;SDS011;33163;0.000;0.000;2022-08-07T07:01:30;1.85;;;1.23;;
47413;SDS011;33163;0.000;0.000;2022-08-07T07:03:59;2.00;;;1.75;;
47413;SDS011;33163;0.000;0.000;2022-08-07T07:06:26;1.58;;;1.40;;
47413;SDS011;33163;0.000;0.000;2022-08-07T07:08:56;4.82;;;1.45;;
47413;SDS011;33163;0.000;0.000;2022-08-07T07:11:37;2.17;;;1.70;;
47413;SDS011;33163;0.000;0.000;2022-08-07T07:14:05;2.95;;;1.48;;
47413;SDS011;33163;0.000;0.000;2022-08-07T07:16:35;6.43;;;1.65;;
47413;SDS011;33163;0.000;0.000;2022-08-07T07:19:04;1.83;;;1.42;;
47413;SDS011;33163;0.000;0.000;2022-08-07T07:21:33;1.95;;;1.70;;
47413;SDS011;33163;0.000;0.000;2022-08-07T07:24:05;4.13;;;1.50;;
47413;SDS011;33163;0.000;0.000;2022-08-07T07:26:34;1.73;;;1.20;;
47413;SDS011;33163;0.000;0.000;2022-08-07T07:29:04;3.72;;;1.80;;
47413;SDS011;33163;0.000;0.000;2022-08-07T07:31:37;7.00;;;2.85;;
47413;SDS011;33163;0.000;0.000;2022-08-07T07:34:08;10.52;;;3.00;;
47413;SDS011;33163;0.000;0.000;2022-08-07T07:36:38;4.00;;;2.65;;
47413;SDS011;33163;0.000;0.000;2022-08-07T07:39:08;5.22;;;2.40;;
47413;SDS011;33163;0.000;0.000;2022-08-07T07:41:36;4.20;;;2.38;;
47413;SDS011;33163;0.000;0.000;2022-08-07T07:44:06;10.80;;;2.33;;
47413;SDS011;33163;0.000;0.000;2022-08-07T07:46:35;10.50;;;2.30;;
47413;SDS011;33163;0.000;0.000;2022-08-07T07:49:04;4.35;;;2.65;;
47413;SDS011;33163;0.000;0.000;2022-08-07T07:51:33;5.97;;;2.45;;
47413;SDS011;33163;0.000;0.000;2022-08-07T07:54:03;6.53;;;2.42;;
47413;SDS011;33163;0.000;0.000;2022-08-07T07:56:33;3.85;;;2.55;;
47413;SDS011;33163;0.000;0.000;2022-08-07T07:59:01;9.40;;;2.55;;
47413;SDS011;33163;0.000;0.000;2022-08-07T08:01:30;6.03;;;2.75;;
47413;SDS011;33163;0.000;0.000;2022-08-07T08:03:59;7.00;;;2.80;;
47413;SDS011;33163;0.000;0.000;2022-08-07T08:06:30;6.57;;;2.70;;
47413;SDS011;33163;0.000;0.000;2022-08-07T08:08:58;8.57;;;2.17;;
47413;SDS011;33163;0.000;0.000;2022-08-07T08:11:26;8.15;;;2.85;;
47413;SDS011;33163;0.000;0.000;2022-08-07T08:13:55;5.03;;;2.35;;
47413;SDS011;33163;0.000;0.000;2022-08-07T08:16:24;3.58;;;2.58;;
47413;SDS011;33163;0.000;0.000;2022-08-07T08:18:54;3.70;;;2.42;;
47413;SDS011;33163;0.000;0.000;2022-08-07T08:21:23;5.45;;;2.22;;
47413;SDS011;33163;0.000;0.000;2022-08-07T08:26:54;4.00;;;2.47;;
47413;SDS011;33163;0.000;0.000;2022-08-07T08:29:35;5.32;;;1.80;;
47413;SDS011;33163;0.000;0.000;2022-08-07T08:32:05;3.55;;;2.08;;
47413;SDS011;33163;0.000;0.000;2022-08-07T08:34:34;2.88;;;1.80;;
47413;SDS011;33163;0.000;0.000;2022-08-07T08:37:05;6.30;;;3.15;;
47413;SDS011;33163;0.000;0.000;2022-08-07T08:39:34;4.78;;;2.30;;
47413;SDS011;33163;0.000;0.000;2022-08-07T08:42:03;7.70;;;2.53;;
47413;SDS011;33163;0.000;0.000;2022-08-07T08:44:32;3.50;;;2.10;;
47413;SDS011;33163;0.000;0.000;2022-08-07T08:47:06;4.38;;;2.25;;
47413;SDS011;33163;0.000;0.000;2022-08-07T08:49:39;11.38;;;2.20;;
47413;SDS011;33163;0.000;0.000;2022-08-07T08:52:15;10.13;;;2.70;;
47413;SDS011;33163;0.000;0.000;2022-08-07T08:54:48;3.88;;;2.53;;
47413;SDS011;33163;0.000;0.000;2022-08-07T08:57:24;6.30;;;1.98;;
47413;SDS011;33163;0.000;0.000;2022-08-07T09:00:03;6.65;;;2.47;;
47413;SDS011;33163;0.000;0.000;2022-08-07T09:02:33;5.82;;;2.58;;
47413;SDS011;33163;0.000;0.000;2022-08-07T09:05:11;6.90;;;2.53;;
47413;SDS011;33163;0.000;0.000;2022-08-07T09:07:55;7.18;;;2.67;;
47413;SDS011;33163;0.000;0.000;2022-08-07T09:10:31;5.28;;;2.40;;
47413;SDS011;33163;0.000;0.000;2022-08-07T09:13:04;4.55;;;2.35;;
47413;SDS011;33163;0.000;0.000;2022-08-07T09:15:41;8.32;;;2.10;;
47413;SDS011;33163;0.000;0.000;2022-08-07T09:18:25;5.25;;;2.00;;
47413;SDS011;33163;0.000;0.000;2022-08-07T09:21:02;7.55;;;2.58;;
47413;SDS011;33163;0.000;0.000;2022-08-07T09:23:40;3.33;;;2.03;;
47413;SDS011;33163;0.000;0.000;2022-08-07T09:26:21;6.55;;;2.50;;
47413;SDS011;33163;0.000;0.000;2022-08-07T09:28:58;6.00;;;2.67;;
47413;SDS011;33163;0.000;0.000;2022-08-07T09:31:34;9.80;;;2.03;;
47413;SDS011;33163;0.000;0.000;2022-08-07T09:34:08;6.45;;;2.97;;
47413;SDS011;33163;0.000;0.000;2022-08-07T09:36:41;3.88;;;2.38;;
47413;SDS011;33163;0.000;0.000;2022-08-07T09:39:21;7.00;;;1.77;;
47413;SDS011;33163;0.000;0.000;2022-08-07T09:41:58;4.78;;;2.00;;
47413;SDS011;33163;0.000;0.000;2022-08-07T09:44:33;13.23;;;2.90;;
47413;SDS011;33163;0.000;0.000;2022-08-07T09:47:16;23.67;;;2.47;;
47413;SDS011;33163;0.000;0.000;2022-08-07T09:49:52;6.13;;;2.10;;
47413;SDS011;33163;0.000;0.000;2022-08-07T09:52:25;3.95;;;2.05;;
47413;SDS011;33163;0.000;0.000;2022-08-07T09:54:58;4.20;;;2.15;;
47413;SDS011;33163;0.000;0.000;2022-08-07T09:57:46;12.52;;;2.25;;
47413;SDS011;33163;0.000;0.000;2022-08-07T10:00:30;3.88;;;2.15;;
47413;SDS011;33163;0.000;0.000;2022-08-07T10:03:26;7.75;;;1.83;;
47413;SDS011;33163;0.000;0.000;2022-08-07T10:09:21;7.57;;;1.95;;
47413;SDS011;33163;0.000;0.000;2022-08-07T10:12:13;8.73;;;1.90;;
47413;SDS011;33163;0.000;0.000;2022-08-07T10:15:00;9.63;;;2.17;;
47413;SDS011;33163;0.000;0.000;2022-08-07T10:20:38;9.60;;;1.95;;
47413;SDS011;33163;0.000;0.000;2022-08-07T10:26:29;9.75;;;1.70;;
47413;SDS011;33163;0.000;0.000;2022-08-07T10:29:14;7.25;;;2.58;;
47413;SDS011;33163;0.000;0.000;2022-08-07T10:31:52;10.00;;;2.30;;
47413;SDS011;33163;0.000;0.000;2022-08-07T10:34:38;10.15;;;2.60;;
47413;SDS011;33163;0.000;0.000;2022-08-07T10:37:26;4.00;;;1.85;;
47413;SDS011;33163;0.000;0.000;2022-08-07T10:40:02;7.55;;;2.28;;
47413;SDS011;33163;0.000;0.000;2022-08-07T10:42:35;8.20;;;2.28;;
47413;SDS011;33163;0.000;0.000;2022-08-07T10:45:10;5.70;;;2.22;;
47413;SDS011;33163;0.000;0.000;2022-08-07T10:47:45;6.88;;;2.20;;
47413;SDS011;33163;0.000;0.000;2022-08-07T10:50:23;3.35;;;1.80;;
47413;SDS011;33163;0.000;0.000;2022-08-07T10:53:00;9.50;;;1.88;;
47413;SDS011;33163;0.000;0.000;2022-08-07T10:55:38;4.80;;;1.70;;
47413;SDS011;33163;0.000;0.000;2022-08-07T10:58:12;8.65;;;2.08;;
47413;SDS011;33163;0.000;0.000;2022-08-07T11:00:48;5.47;;;1.90;;
47413;SDS011;33163;0.000;0.000;2022-08-07T11:03:22;8.30;;;2.08;;
47413;SDS011;33163;0.000;0.000;2022-08-07T11:06:07;4.22;;;1.70;;
47413;SDS011;33163;0.000;0.000;2022-08-07T11:08:42;9.32;;;1.55;;
47413;SDS011;33163;0.000;0.000;2022-08-07T11:13:44;11.48;;;2.03;;
47413;SDS011;33163;0.000;0.000;2022-08-07T11:16:16;2.55;;;1.55;;
47413;SDS011;33163;0.000;0.000;2022-08-07T11:18:47;2.67;;;1.85;;
47413;SDS011;33163;0.000;0.000;2022-08-07T11:21:23;5.53;;;1.88;;
47413;SDS011;33163;0.000;0.000;2022-08-07T11:24:00;3.70;;;1.42;;
47413;SDS011;33163;0.000;0.000;2022-08-07T11:26:34;2.92;;;1.48;;
47413;SDS011;33163;0.000;0.000;2022-08-07T11:29:10;2.67;;;1.38;;
47413;SDS011;33163;0.000;0.000;2022-08-07T11:31:45;3.10;;;1.75;;
47413;SDS011;33163;0.000;0.000;2022-08-07T11:34:18;4.68;;;1.88;;
47413;SDS011;33163;0.000;0.000;2022-08-07T11:37:05;6.68;;;1.27;;
47413;SDS011;33163;0.000;0.000;2022-08-07T11:39:43;2.03;;;1.40;;
47413;SDS011;33163;0.000;0.000;2022-08-07T11:42:21;7.13;;;1.52;;
47413;SDS011;33163;0.000;0.000;2022-08-07T11:44:57;2.22;;;1.33;;
47413;SDS011;33163;0.000;0.000;2022-08-07T11:47:40;6.63;;;1.15;;
47413;SDS011;33163;0.000;0.000;2022-08-07T11:50:26;1.75;;;1.50;;
47413;SDS011;33163;0.000;0.000;2022-08-07T11:53:02;6.43;;;1.52;;
47413;SDS011;33163;0.000;0.000;2022-08-07T11:55:48;4.63;;;1.60;;
47413;SDS011;33163;0.000;0.000;2022-08-07T11:58:27;4.50;;;1.80;;
47413;SDS011;33163;0.000;0.000;2022-08-07T12:01:08;1.50;;;1.40;;
47413;SDS011;33163;0.000;0.000;2022-08-07T12:06:37;14.23;;;2.60;;
47413;SDS011;33163;0.000;0.000;2022-08-07T12:09:12;4.32;;;1.80;;
47413;SDS011;33163;0.000;0.000;2022-08-07T12:11:46;9.18;;;1.75;;
47413;SDS011;33163;0.000;0.000;2022-08-07T12:14:19;6.85;;;1.75;;
47413;SDS011;33163;0.000;0.000;2022-08-07T12:16:50;2.45;;;1.42;;
47413;SDS011;33163;0.000;0.000;2022-08-07T12:19:20;7.22;;;1.80;;
47413;SDS011;33163;0.000;0.000;2022-08-07T12:21:57;3.22;;;1.50;;
47413;SDS011;33163;0.000;0.000;2022-08-07T12:24:32;6.00;;;1.83;;
47413;SDS011;33163;0.000;0.000;2022-08-07T12:27:32;4.15;;;1.77;;
47413;SDS011;33163;0.000;0.000;2022-08-07T12:30:03;4.05;;;1.70;;
47413;SDS011;33163;0.000;0.000;2022-08-07T12:32:33;3.22;;;1.98;;
47413;SDS011;33163;0.000;0.000;2022-08-07T12:35:06;3.70;;;1.70;;
47413;SDS011;33163;0.000;0.000;2022-08-07T12:37:35;5.70;;;1.70;;
47413;SDS011;33163;0.000;0.000;2022-08-07T12:40:05;3.83;;;1.83;;
47413;SDS011;33163;0.000;0.000;2022-08-07T12:42:34;3.53;;;1.95;;
47413;SDS011;33163;0.000;0.000;2022-08-07T12:45:04;8.02;;;1.80;;
47413;SDS011;33163;0.000;0.000;2022-08-07T12:47:37;4.15;;;2.00;;
47413;SDS011;33163;0.000;0.000;2022-08-07T12:50:11;4.90;;;1.55;;
47413;SDS011;33163;0.000;0.000;2022-08-07T12:52:46;5.30;;;2.15;;
47413;SDS011;33163;0.000;0.000;2022-08-07T12:55:16;4.13;;;2.38;;
47413;SDS011;33163;0.000;0.000;2022-08-07T12:57:48;5.45;;;1.92;;
47413;SDS011;33163;0.000;0.000;2022-08-07T13:00:17;5.50;;;2.00;;
47413;SDS011;33163;0.000;0.000;2022-08-07T13:03:07;5.57;;;1.95;;
47413;SDS011;33163;0.000;0.000;2022-08-07T13:05:52;19.15;;;2.33;;
47413;SDS011;33163;0.000;0.000;2022-08-07T13:08:33;8.52;;;1.58;;
47413;SDS011;33163;0.000;0.000;2022-08-07T13:11:13;18.23;;;1.80;;
47413;SDS011;33163;0.000;0.000;2022-08-07T13:13:56;6.35;;;1.73;;
47413;SDS011;33163;0.000;0.000;2022-08-07T13:16:31;6.03;;;2.53;;
47413;SDS011;33163;0.000;0.000;2022-08-07T13:19:07;3.60;;;1.85;;
47413;SDS011;33163;0.000;0.000;2022-08-07T13:21:39;9.70;;;2.05;;
47413;SDS011;33163;0.000;0.000;2022-08-07T13:24:12;11.20;;;1.90;;
47413;SDS011;33163;0.000;0.000;2022-08-07T13:26:45;3.70;;;1.80;;
47413;SDS011;33163;0.000;0.000;2022-08-07T13:29:22;7.65;;;1.98;;
47413;SDS011;33163;0.000;0.000;2022-08-07T13:31:52;4.55;;;1.83;;
47413;SDS011;33163;0.000;0.000;2022-08-07T13:34:27;5.63;;;1.70;;
47413;SDS011;33163;0.000;0.000;2022-08-07T13:37:03;10.10;;;2.28;;
47413;SDS011;33163;0.000;0.000;2022-08-07T13:39:35;4.85;;;1.50;;
47413;SDS011;33163;0.000;0.000;2022-08-07T13:42:10;6.97;;;1.92;;
47413;SDS011;33163;0.000;0.000;2022-08-07T13:44:39;5.07;;;2.08;;
47413;SDS011;33163;0.000;0.000;2022-08-07T13:47:09;9.35;;;1.92;;
47413;SDS011;33163;0.000;0.000;2022-08-07T13:49:38;6.47;;;1.70;;
47413;SDS011;33163;0.000;0.000;2022-08-07T13:52:10;2.50;;;1.52;;
47413;SDS011;33163;0.000;0.000;2022-08-07T13:54:39;5.70;;;1.70;;
47413;SDS011;33163;0.000;0.000;2022-08-07T13:57:08;6.28;;;1.90;;
47413;SDS011;33163;0.000;0.000;2022-08-07T13:59:41;2.35;;;1.60;;
47413;SDS011;33163;0.000;0.000;2022-08-07T14:02:10;4.68;;;1.67;;
47413;SDS011;33163;0.000;0.000;2022-08-07T14:04:46;5.53;;;1.90;;
47413;SDS011;33163;0.000;0.000;2022-08-07T14:07:16;3.60;;;1.42;;
47413;SDS011;33163;0.000;0.000;2022-08-07T14:09:44;3.70;;;1.75;;
47413;SDS011;33163;0.000;0.000;2022-08-07T14:12:12;5.07;;;1.65;;
47413;SDS011;33163;0.000;0.000;2022-08-07T14:14:50;3.03;;;1.60;;
47413;SDS011;33163;0.000;0.000;2022-08-07T14:17:21;3.75;;;1.77;;
47413;SDS011;33163;0.000;0.000;2022-08-07T14:19:51;5.03;;;1.40;;
47413;SDS011;33163;0.000;0.000;2022-08-07T14:22:22;5.40;;;1.40;;
47413;SDS011;33163;0.000;0.000;2022-08-07T14:24:56;5.30;;;1.60;;
47413;SDS011;33163;0.000;0.000;2022-08-07T14:27:28;5.30;;;1.40;;
47413;SDS011;33163;0.000;0.000;2022-08-07T14:30:03;4.00;;;1.60;;
47413;SDS011;33163;0.000;0.000;2022-08-07T14:32:35;5.80;;;2.00;;
47413;SDS011;33163;0.000;0.000;2022-08-07T14:35:07;7.47;;;1.80;;
47413;SDS011;33163;0.000;0.000;2022-08-07T14:37:35;4.47;;;2.28;;
47413;SDS011;33163;0.000;0.000;2022-08-07T14:40:04;3.10;;;1.50;;
47413;SDS011;33163;0.000;0.000;2022-08-07T14:42:32;3.08;;;1.48;;
47413;SDS011;33163;0.000;0.000;2022-08-07T14:45:03;8.45;;;1.75;;
47413;SDS011;33163;0.000;0.000;2022-08-07T14:47:31;2.45;;;1.58;;
47413;SDS011;33163;0.000;0.000;2022-08-07T14:49:59;4.50;;;2.03;;
47413;SDS011;33163;0.000;0.000;2022-08-07T14:52:31;6.85;;;2.47;;
47413;SDS011;33163;0.000;0.000;2022-08-07T14:55:00;10.10;;;1.83;;
47413;SDS011;33163;0.000;0.000;2022-08-07T14:57:27;6.65;;;2.03;;
47413;SDS011;33163;0.000;0.000;2022-08-07T14:59:57;6.78;;;2.03;;
47413;SDS011;33163;0.000;0.000;2022-08-07T15:02:27;8.90;;;1.80;;
47413;SDS011;33163;0.000;0.000;2022-08-07T15:04:54;7.00;;;2.30;;
47413;SDS011;33163;0.000;0.000;2022-08-07T15:07:22;8.05;;;2.00;;
47413;SDS011;33163;0.000;0.000;2022-08-07T15:09:50;8.50;;;2.08;;
47413;SDS011;33163;0.000;0.000;2022-08-07T15:12:21;8.80;;;2.15;;
47413;SDS011;33163;0.000;0.000;2022-08-07T15:14:50;8.18;;;2.60;;
47413;SDS011;33163;0.000;0.000;2022-08-07T15:17:20;6.15;;;2.15;;
47413;SDS011;33163;0.000;0.000;2022-08-07T15:19:58;7.93;;;2.38;;
47413;SDS011;33163;0.000;0.000;2022-08-07T15:22:29;6.50;;;2.72;;
47413;SDS011;33163;0.000;0.000;2022-08-07T15:25:00;4.75;;;2.47;;
47413;SDS011;33163;0.000;0.000;2022-08-07T15:27:28;7.40;;;2.50;;
47413;SDS011;33163;0.000;0.000;2022-08-07T15:29:59;5.05;;;1.70;;
47413;SDS011;33163;0.000;0.000;2022-08-07T15:32:33;3.07;;;1.67;;
47413;SDS011;33163;0.000;0.000;2022-08-07T15:35:07;8.10;;;2.20;;
47413;SDS011;33163;0.000;0.000;2022-08-07T15:37:40;5.85;;;2.20;;
47413;SDS011;33163;0.000;0.000;2022-08-07T15:40:11;5.10;;;2.05;;
47413;SDS011;33163;0.000;0.000;2022-08-07T15:42:48;5.80;;;1.95;;
47413;SDS011;33163;0.000;0.000;2022-08-07T15:45:25;6.88;;;1.88;;